createdAt,value
2023-01-29T00:00:22.511Z,22.43
2023-01-29T00:02:52.451Z,19.87
2023-01-29T00:05:27.846Z,17.33
2023-01-29T00:07:57.126Z,17.50
2023-01-29T00:10:26.634Z,21.57
2023-01-29T00:12:55.539Z,17.93
2023-01-29T00:15:24.271Z,19.93
2023-01-29T00:17:54.229Z,22.20
2023-01-29T00:20:22.888Z,20.77
2023-01-29T00:22:51.533Z,22.37
2023-01-29T00:25:20.292Z,19.27
2023-01-29T00:27:48.921Z,22.43
2023-01-29T00:30:19.773Z,22.10
2023-01-29T00:32:48.830Z,19.73
2023-01-29T00:35:18.966Z,28.87
2023-01-29T00:37:48.078Z,20.60
2023-01-29T00:40:17.377Z,22.57
2023-01-29T00:43:05.101Z,25.53
2023-01-29T00:45:34.051Z,23.97
2023-01-29T00:48:02.758Z,18.87
2023-01-29T00:50:33.574Z,19.60
2023-01-29T00:53:02.182Z,27.57
2023-01-29T00:55:31.458Z,33.20
2023-01-29T00:58:00.252Z,33.93
2023-01-29T01:00:28.852Z,23.53
2023-01-29T01:03:08.347Z,21.17
2023-01-29T01:05:39.147Z,19.33
2023-01-29T01:08:28.605Z,27.23
2023-01-29T01:11:01.079Z,25.13
2023-01-29T01:13:30.123Z,25.53
2023-01-29T01:15:59.188Z,21.27
2023-01-29T01:18:31.466Z,20.77
2023-01-29T01:21:01.745Z,21.03
2023-01-29T01:23:30.525Z,19.33
2023-01-29T01:25:59.225Z,20.50
2023-01-29T01:28:28.267Z,20.27
2023-01-29T01:30:57.176Z,19.13
2023-01-29T01:33:25.816Z,19.70
2023-01-29T01:35:54.453Z,20.07
2023-01-29T01:38:25.029Z,22.90
2023-01-29T01:40:53.775Z,20.63
2023-01-29T01:43:22.518Z,19.33
2023-01-29T01:45:51.120Z,20.23
2023-01-29T01:48:22.944Z,20.53
2023-01-29T01:50:54.421Z,18.67
2023-01-29T01:53:30.639Z,19.07
2023-01-29T01:56:04.874Z,20.27
2023-01-29T01:58:36.971Z,20.13
2023-01-29T02:01:08.305Z,16.87
2023-01-29T02:04:00.800Z,29.33
2023-01-29T02:06:46.988Z,21.93
2023-01-29T02:09:33.361Z,20.70
2023-01-29T02:12:02.580Z,22.23
2023-01-29T02:14:32.022Z,21.27
2023-01-29T02:17:02.341Z,19.47
2023-01-29T02:19:42.778Z,21.53
2023-01-29T02:22:30.663Z,18.13
2023-01-29T02:25:32.736Z,22.63
2023-01-29T02:28:21.903Z,17.77
2023-01-29T02:30:58.988Z,20.43
2023-01-29T02:33:37.127Z,20.60
2023-01-29T02:36:16.989Z,19.60
2023-01-29T02:38:51.955Z,22.20
2023-01-29T02:41:27.856Z,18.70
2023-01-29T02:44:06.296Z,23.10
2023-01-29T02:46:38.985Z,22.47
2023-01-29T02:49:14.129Z,21.07
2023-01-29T02:51:49.751Z,17.60
2023-01-29T02:54:22.988Z,18.93
2023-01-29T02:56:57.369Z,19.97
2023-01-29T02:59:35.525Z,21.57
2023-01-29T03:02:09.430Z,18.13
2023-01-29T03:04:45.736Z,21.30
2023-01-29T03:07:41.082Z,20.57
2023-01-29T03:10:20.435Z,19.17
2023-01-29T03:12:55.513Z,25.50
2023-01-29T03:15:30.536Z,20.80
2023-01-29T03:18:26.075Z,22.83
2023-01-29T03:21:01.472Z,22.50
2023-01-29T03:23:50.397Z,22.20
2023-01-29T03:26:40.281Z,31.20
2023-01-29T03:29:28.873Z,28.40
2023-01-29T03:32:05.681Z,24.77
2023-01-29T03:34:43.628Z,23.67
2023-01-29T03:37:18.784Z,27.50
2023-01-29T03:39:47.564Z,27.87
2023-01-29T03:42:24.872Z,23.23
2023-01-29T03:45:01.686Z,25.03
2023-01-29T03:47:44.574Z,24.90
2023-01-29T03:50:25.114Z,20.37
2023-01-29T03:53:03.458Z,24.30
2023-01-29T03:55:36.913Z,24.60
2023-01-29T03:58:10.272Z,24.07
2023-01-29T04:00:46.146Z,18.80
2023-01-29T04:03:21.620Z,20.83
2023-01-29T04:06:05.555Z,23.27
2023-01-29T04:08:42.011Z,24.93
2023-01-29T04:11:17.012Z,25.63
2023-01-29T04:13:46.928Z,26.20
2023-01-29T04:16:23.785Z,23.83
2023-01-29T04:19:14.004Z,27.10
2023-01-29T04:21:46.546Z,27.33
2023-01-29T04:24:16.116Z,26.43
2023-01-29T04:26:59.449Z,22.63
2023-01-29T04:29:40.850Z,23.70
2023-01-29T04:32:19.935Z,25.77
2023-01-29T04:35:01.779Z,22.43
2023-01-29T04:37:38.604Z,23.47
2023-01-29T04:40:19.481Z,26.60
2023-01-29T04:42:54.741Z,28.87
2023-01-29T04:45:33.173Z,23.20
2023-01-29T04:48:12.198Z,24.47
2023-01-29T04:50:47.594Z,23.90
2023-01-29T04:53:23.784Z,18.30
2023-01-29T04:55:57.517Z,22.40
2023-01-29T04:58:33.096Z,21.20
2023-01-29T05:01:05.810Z,23.67
2023-01-29T05:03:37.364Z,24.10
2023-01-29T05:06:11.181Z,22.07
2023-01-29T05:08:41.229Z,26.40
2023-01-29T05:11:10.801Z,24.23
2023-01-29T05:13:42.873Z,24.20
2023-01-29T05:16:16.667Z,26.77
2023-01-29T05:18:45.402Z,23.87
2023-01-29T05:21:15.384Z,26.13
2023-01-29T05:23:53.114Z,24.97
2023-01-29T05:26:40.035Z,24.93
2023-01-29T05:29:09.132Z,25.37
2023-01-29T05:31:37.872Z,24.80
2023-01-29T05:34:06.476Z,23.77
2023-01-29T05:36:36.413Z,20.60
2023-01-29T05:39:05.125Z,20.80
2023-01-29T05:41:33.829Z,24.37
2023-01-29T05:44:02.396Z,19.47
2023-01-29T05:46:30.983Z,21.33
2023-01-29T05:48:59.681Z,26.43
2023-01-29T05:51:28.368Z,18.53
2023-01-29T05:53:58.386Z,22.93
2023-01-29T05:56:27.010Z,22.30
2023-01-29T05:58:56.621Z,22.73
2023-01-29T06:01:26.975Z,20.57
2023-01-29T06:03:55.719Z,21.00
2023-01-29T06:06:24.449Z,22.70
2023-01-29T06:08:52.993Z,24.47
2023-01-29T06:11:22.873Z,26.30
2023-01-29T06:13:51.406Z,23.63
2023-01-29T06:16:20.125Z,22.97
2023-01-29T06:18:48.845Z,24.40
2023-01-29T06:21:19.948Z,21.37
2023-01-29T06:23:48.659Z,24.17
2023-01-29T06:26:17.625Z,24.80
2023-01-29T06:28:50.457Z,19.20
2023-01-29T06:31:36.960Z,25.60
2023-01-29T06:34:07.172Z,21.83
2023-01-29T06:36:35.847Z,20.33
2023-01-29T06:39:04.842Z,21.47
2023-01-29T06:41:33.546Z,20.43
2023-01-29T06:44:03.659Z,25.17
2023-01-29T06:46:32.518Z,23.80
2023-01-29T06:49:01.413Z,19.27
2023-01-29T06:51:30.385Z,22.43
2023-01-29T06:53:59.426Z,24.13
2023-01-29T06:56:28.037Z,20.80
2023-01-29T06:58:56.741Z,28.70
2023-01-29T07:01:35.768Z,24.33
2023-01-29T07:04:05.274Z,20.00
2023-01-29T07:06:34.150Z,21.47
2023-01-29T07:09:02.870Z,26.43
2023-01-29T07:11:32.034Z,18.63
2023-01-29T07:14:00.604Z,19.47
2023-01-29T07:16:30.648Z,18.97
2023-01-29T07:18:59.244Z,21.27
2023-01-29T07:21:28.044Z,19.87
2023-01-29T07:23:56.751Z,20.10
2023-01-29T07:26:25.316Z,22.73
2023-01-29T07:28:53.995Z,19.47
2023-01-29T07:31:22.948Z,19.00
2023-01-29T07:33:52.974Z,17.47
2023-01-29T07:36:21.681Z,25.40
2023-01-29T07:38:51.551Z,17.73
2023-01-29T07:41:20.432Z,24.73
2023-01-29T07:43:49.447Z,17.00
2023-01-29T07:46:18.158Z,16.93
2023-01-29T07:48:46.753Z,19.93
2023-01-29T07:51:18.413Z,21.50
2023-01-29T07:53:47.228Z,19.20
2023-01-29T07:56:15.888Z,18.87
2023-01-29T07:58:44.605Z,20.83
2023-01-29T08:01:13.206Z,22.17
2023-01-29T08:03:41.964Z,24.30
2023-01-29T08:06:10.566Z,21.80
2023-01-29T08:08:40.657Z,24.00
2023-01-29T08:11:09.329Z,19.40
2023-01-29T08:13:37.949Z,19.93
2023-01-29T08:16:07.546Z,20.57
2023-01-29T08:18:38.094Z,22.93
2023-01-29T08:21:06.937Z,18.67
2023-01-29T08:23:35.574Z,20.97
2023-01-29T08:26:06.079Z,20.90
2023-01-29T08:28:35.207Z,21.53
2023-01-29T08:31:03.906Z,24.37
2023-01-29T08:33:38.925Z,23.07
2023-01-29T08:36:09.349Z,20.27
2023-01-29T08:38:37.965Z,22.90
2023-01-29T08:41:08.457Z,20.83
2023-01-29T08:43:38.540Z,22.73
2023-01-29T08:46:08.207Z,22.20
2023-01-29T08:48:36.907Z,20.23
2023-01-29T08:51:06.013Z,16.33
2023-01-29T08:53:34.584Z,19.80
2023-01-29T08:56:03.286Z,22.67
2023-01-29T08:58:33.298Z,21.00
2023-01-29T09:01:07.846Z,21.97
2023-01-29T09:03:36.647Z,19.87
2023-01-29T09:06:05.668Z,22.47
2023-01-29T09:08:35.455Z,20.37
2023-01-29T09:11:04.044Z,22.43
2023-01-29T09:13:34.369Z,24.33
2023-01-29T09:16:03.895Z,22.70
2023-01-29T09:18:32.925Z,20.80
2023-01-29T09:21:02.540Z,18.03
2023-01-29T09:23:31.498Z,19.73
2023-01-29T09:26:00.543Z,18.90
2023-01-29T09:28:29.195Z,19.17
2023-01-29T09:31:02.848Z,21.33
2023-01-29T09:33:32.441Z,19.73
2023-01-29T09:36:00.999Z,20.80
2023-01-29T09:38:29.574Z,18.00
2023-01-29T09:41:07.468Z,20.50
2023-01-29T09:43:45.288Z,20.80
2023-01-29T09:46:22.380Z,20.13
2023-01-29T09:48:58.816Z,19.50
2023-01-29T09:51:32.443Z,19.67
2023-01-29T09:54:12.633Z,17.80
2023-01-29T09:56:43.237Z,19.97
2023-01-29T09:59:14.570Z,21.10
2023-01-29T10:01:53.856Z,21.50
2023-01-29T10:04:45.460Z,20.40
2023-01-29T10:07:27.824Z,20.33
2023-01-29T10:10:09.779Z,18.97
2023-01-29T10:12:51.557Z,15.17
2023-01-29T10:15:32.183Z,16.93
2023-01-29T10:18:40.095Z,18.50
2023-01-29T10:21:29.394Z,19.03
2023-01-29T10:24:06.749Z,18.17
2023-01-29T10:26:37.839Z,16.97
2023-01-29T10:29:08.985Z,23.60
2023-01-29T10:31:40.763Z,20.77
2023-01-29T10:34:17.838Z,22.03
2023-01-29T10:36:47.707Z,17.17
2023-01-29T10:39:19.337Z,18.63
2023-01-29T10:42:07.640Z,20.27
2023-01-29T10:44:47.024Z,21.70
2023-01-29T10:47:53.908Z,21.27
2023-01-29T10:50:37.470Z,19.10
2023-01-29T10:53:30.516Z,18.57
2023-01-29T10:56:21.783Z,24.20
2023-01-29T10:58:53.244Z,23.37
2023-01-29T11:01:21.882Z,23.43
2023-01-29T11:03:58.037Z,17.67
2023-01-29T11:06:31.138Z,20.50
2023-01-29T11:09:09.086Z,23.43
2023-01-29T11:11:42.909Z,24.03
2023-01-29T11:14:15.174Z,25.20
2023-01-29T11:16:45.642Z,18.63
2023-01-29T11:19:14.803Z,25.43
2023-01-29T11:21:58.018Z,22.10
2023-01-29T11:24:26.908Z,24.23
2023-01-29T11:26:58.165Z,21.77
2023-01-29T11:29:40.639Z,20.60
2023-01-29T11:32:14.379Z,24.93
2023-01-29T11:35:03.204Z,23.43
2023-01-29T11:37:38.276Z,22.77
2023-01-29T11:40:38.660Z,28.83
2023-01-29T11:43:31.852Z,20.67
2023-01-29T11:46:03.546Z,19.10
2023-01-29T11:48:41.679Z,25.63
2023-01-29T11:51:13.682Z,22.40
2023-01-29T11:53:45.679Z,24.00
2023-01-29T11:56:23.605Z,21.37
2023-01-29T11:58:55.341Z,26.20
2023-01-29T12:01:32.979Z,31.13
2023-01-29T12:04:02.052Z,25.47
2023-01-29T12:06:36.605Z,30.07
2023-01-29T12:09:14.460Z,24.93
2023-01-29T12:11:44.469Z,23.40
2023-01-29T12:14:28.105Z,26.10
2023-01-29T12:17:00.692Z,27.40
2023-01-29T12:19:35.077Z,30.00
2023-01-29T12:22:07.649Z,22.60
2023-01-29T12:24:45.011Z,29.33
2023-01-29T12:27:18.536Z,25.03
2023-01-29T12:29:52.430Z,23.60
2023-01-29T12:32:30.730Z,26.07
2023-01-29T12:35:05.167Z,25.53
2023-01-29T12:37:46.627Z,26.50
2023-01-29T12:40:18.978Z,24.20
2023-01-29T12:42:50.716Z,24.47
2023-01-29T12:45:22.097Z,30.20
2023-01-29T12:47:53.398Z,24.10
2023-01-29T12:50:25.057Z,28.07
2023-01-29T12:52:56.810Z,24.90
2023-01-29T12:55:33.714Z,26.47
2023-01-29T12:58:05.400Z,26.27
2023-01-29T13:00:36.696Z,24.07
2023-01-29T13:03:16.194Z,26.60
2023-01-29T13:05:48.250Z,25.83
2023-01-29T13:08:21.942Z,28.73
2023-01-29T13:10:54.601Z,28.60
2023-01-29T13:13:29.397Z,28.90
2023-01-29T13:16:00.099Z,33.87
2023-01-29T13:18:40.699Z,23.80
2023-01-29T13:21:15.439Z,32.23
2023-01-29T13:23:48.046Z,28.27
2023-01-29T13:26:21.278Z,26.73
2023-01-29T13:28:50.746Z,31.57
2023-01-29T13:31:31.493Z,24.47
2023-01-29T13:34:10.877Z,26.57
2023-01-29T13:36:44.237Z,30.13
2023-01-29T13:39:23.633Z,27.30
2023-01-29T13:41:54.813Z,29.53
2023-01-29T13:44:26.867Z,29.83
2023-01-29T13:46:58.795Z,26.70
2023-01-29T13:49:32.639Z,27.73
2023-01-29T13:52:14.885Z,31.27
2023-01-29T13:54:52.636Z,26.20
2023-01-29T13:57:54.733Z,28.30
2023-01-29T14:00:58.627Z,30.37
2023-01-29T14:04:04.578Z,29.23
2023-01-29T14:06:44.856Z,24.90
2023-01-29T14:09:56.990Z,22.83
2023-01-29T14:12:44.414Z,31.70
2023-01-29T14:15:36.253Z,48.43
2023-01-29T14:18:17.278Z,26.80
2023-01-29T14:20:56.857Z,26.80
2023-01-29T14:23:35.701Z,32.93
2023-01-29T14:26:07.011Z,24.93
2023-01-29T14:28:36.323Z,26.50
2023-01-29T14:31:07.596Z,24.03
2023-01-29T14:33:39.833Z,25.37
2023-01-29T14:36:14.044Z,27.67
2023-01-29T14:38:51.145Z,23.20
2023-01-29T14:41:27.755Z,25.77
2023-01-29T14:44:29.616Z,27.00
2023-01-29T14:46:59.577Z,21.57
2023-01-29T14:49:50.634Z,25.67
2023-01-29T14:52:22.560Z,23.37
2023-01-29T14:54:54.101Z,22.67
2023-01-29T14:57:23.625Z,28.20
2023-01-29T14:59:57.253Z,26.57
2023-01-29T15:02:33.628Z,28.27
2023-01-29T15:05:05.564Z,22.60
2023-01-29T15:07:38.195Z,22.77
2023-01-29T15:10:23.666Z,26.40
2023-01-29T15:12:58.169Z,23.67
2023-01-29T15:15:36.311Z,27.43
2023-01-29T15:18:10.024Z,24.10
2023-01-29T15:20:40.242Z,21.17
2023-01-29T15:23:27.278Z,24.00
2023-01-29T15:25:58.263Z,22.30
2023-01-29T15:28:27.767Z,27.23
2023-01-29T15:30:59.020Z,21.87
2023-01-29T15:33:29.631Z,22.97
2023-01-29T15:36:08.731Z,23.33
2023-01-29T15:38:37.467Z,22.97
2023-01-29T15:41:18.584Z,25.57
2023-01-29T15:43:48.890Z,25.00
2023-01-29T15:46:24.026Z,24.07
2023-01-29T15:48:55.890Z,21.43
2023-01-29T15:51:28.119Z,26.47
2023-01-29T15:54:00.220Z,24.63
2023-01-29T15:56:33.431Z,24.87
2023-01-29T15:59:09.416Z,30.10
2023-01-29T16:01:38.452Z,24.87
2023-01-29T16:04:14.386Z,25.53
2023-01-29T16:06:44.454Z,31.00
2023-01-29T16:09:18.991Z,29.03
2023-01-29T16:11:50.401Z,21.77
2023-01-29T16:14:25.389Z,24.07
2023-01-29T16:16:54.064Z,26.47
2023-01-29T16:19:26.285Z,21.93
2023-01-29T16:22:00.180Z,28.93
2023-01-29T16:24:31.000Z,22.40
2023-01-29T16:27:02.190Z,28.87
2023-01-29T16:29:32.880Z,24.13
2023-01-29T16:32:03.687Z,23.53
2023-01-29T16:34:37.694Z,26.17
2023-01-29T16:37:08.708Z,21.50
2023-01-29T16:39:40.105Z,21.50
2023-01-29T16:42:30.039Z,26.63
2023-01-29T16:45:01.839Z,22.20
2023-01-29T16:47:36.074Z,31.13
2023-01-29T16:50:27.651Z,22.27
2023-01-29T16:52:58.247Z,25.13
2023-01-29T16:55:27.105Z,26.20
2023-01-29T16:57:57.215Z,31.77
2023-01-29T17:00:28.805Z,30.03
2023-01-29T17:03:02.345Z,23.57
2023-01-29T17:05:35.113Z,31.67
2023-01-29T17:08:05.716Z,29.80
2023-01-29T17:10:35.933Z,34.13
2023-01-29T17:13:07.542Z,23.27
2023-01-29T17:15:44.473Z,33.93
2023-01-29T17:18:18.784Z,28.63
2023-01-29T17:20:49.471Z,33.60
2023-01-29T17:23:18.243Z,33.23
2023-01-29T17:25:47.998Z,27.90
2023-01-29T17:28:18.822Z,30.03
2023-01-29T17:31:00.071Z,27.33
2023-01-29T17:33:29.307Z,32.53
2023-01-29T17:35:59.329Z,29.77
2023-01-29T17:38:27.971Z,31.83
2023-01-29T17:40:59.095Z,29.97
2023-01-29T17:43:27.858Z,30.13
2023-01-29T17:45:56.532Z,32.00
2023-01-29T17:48:26.798Z,38.13
2023-01-29T17:50:57.502Z,31.90
2023-01-29T17:53:43.352Z,32.07
2023-01-29T17:56:17.055Z,26.43
2023-01-29T17:58:45.743Z,26.83
2023-01-29T18:01:14.251Z,29.53
2023-01-29T18:03:43.029Z,28.30
2023-01-29T18:06:18.902Z,29.47
2023-01-29T18:08:48.872Z,27.57
2023-01-29T18:11:17.421Z,29.23
2023-01-29T18:13:46.016Z,32.47
2023-01-29T18:16:14.933Z,35.40
2023-01-29T18:18:43.549Z,42.30
2023-01-29T18:21:12.181Z,35.40
2023-01-29T18:23:41.002Z,32.27
2023-01-29T18:26:13.109Z,33.77
2023-01-29T18:28:43.661Z,31.13
2023-01-29T18:31:14.146Z,48.73
2023-01-29T18:33:43.070Z,40.53
2023-01-29T18:36:11.899Z,43.27
2023-01-29T18:38:40.762Z,40.47
2023-01-29T18:41:11.669Z,34.83
2023-01-29T18:43:41.117Z,40.63
2023-01-29T18:46:10.346Z,42.13
2023-01-29T18:48:40.937Z,52.60
2023-01-29T18:51:10.222Z,37.20
2023-01-29T18:53:38.755Z,42.60
2023-01-29T18:56:08.805Z,32.63
2023-01-29T18:58:39.429Z,32.97
2023-01-29T19:01:12.042Z,33.73
2023-01-29T19:03:41.647Z,37.17
2023-01-29T19:06:11.802Z,39.63
2023-01-29T19:08:42.963Z,37.70
2023-01-29T19:11:12.549Z,38.53
2023-01-29T19:13:42.947Z,38.50
2023-01-29T19:16:13.595Z,46.83
2023-01-29T19:18:42.390Z,43.57
2023-01-29T19:21:12.959Z,28.60
2023-01-29T19:23:42.135Z,47.57
2023-01-29T19:26:11.635Z,40.07
2023-01-29T19:28:41.872Z,46.20
2023-01-29T19:31:10.898Z,34.93
2023-01-29T19:33:39.981Z,49.23
2023-01-29T19:36:09.114Z,34.20
2023-01-29T19:38:41.215Z,30.80
2023-01-29T19:41:09.922Z,36.30
2023-01-29T19:43:41.885Z,33.37
2023-01-29T19:46:12.014Z,28.83
2023-01-29T19:48:40.779Z,33.70
2023-01-29T19:51:12.125Z,31.83
2023-01-29T19:53:43.763Z,25.17
2023-01-29T19:56:14.097Z,30.13
2023-01-29T19:58:42.725Z,29.67
2023-01-29T20:01:17.313Z,37.43
2023-01-29T20:03:47.608Z,40.80
2023-01-29T20:06:18.531Z,46.30
2023-01-29T20:08:47.501Z,35.80
2023-01-29T20:11:17.003Z,44.10
2023-01-29T20:13:48.414Z,34.93
2023-01-29T20:16:20.051Z,30.27
2023-01-29T20:18:48.638Z,47.53
2023-01-29T20:21:20.511Z,36.90
2023-01-29T20:23:51.494Z,40.87
2023-01-29T20:26:21.474Z,32.07
2023-01-29T20:28:50.346Z,36.23
2023-01-29T20:31:20.349Z,36.30
2023-01-29T20:33:48.841Z,31.53
2023-01-29T20:36:17.379Z,37.07
2023-01-29T20:38:46.162Z,38.50
2023-01-29T20:41:16.281Z,37.60
2023-01-29T20:43:45.848Z,32.67
2023-01-29T20:46:14.767Z,33.30
2023-01-29T20:48:44.725Z,40.37
2023-01-29T20:51:15.559Z,31.37
2023-01-29T20:53:46.392Z,34.50
2023-01-29T20:56:16.298Z,33.03
2023-01-29T20:58:46.546Z,26.83
2023-01-29T21:01:17.723Z,35.13
2023-01-29T21:03:49.495Z,33.23
2023-01-29T21:06:18.031Z,34.90
2023-01-29T21:08:46.824Z,31.40
2023-01-29T21:11:15.331Z,33.47
2023-01-29T21:13:44.018Z,35.17
2023-01-29T21:16:12.737Z,36.43
2023-01-29T21:18:41.319Z,32.97
2023-01-29T21:21:11.374Z,38.67
2023-01-29T21:23:39.928Z,39.67
2023-01-29T21:26:08.996Z,38.43
2023-01-29T21:28:37.638Z,35.47
2023-01-29T21:31:07.669Z,34.43
2023-01-29T21:33:36.205Z,30.77
2023-01-29T21:36:05.267Z,30.53
2023-01-29T21:38:35.267Z,31.00
2023-01-29T21:41:06.174Z,34.30
2023-01-29T21:43:34.014Z,29.87
2023-01-29T21:46:05.098Z,33.80
2023-01-29T21:48:33.777Z,32.83
2023-01-29T21:51:02.533Z,36.97
2023-01-29T21:53:31.084Z,30.97
2023-01-29T21:56:02.040Z,33.67
2023-01-29T21:58:30.941Z,33.80
2023-01-29T22:01:18.553Z,28.63
2023-01-29T22:03:47.984Z,27.43
2023-01-29T22:06:16.570Z,37.17
2023-01-29T22:08:45.030Z,27.33
2023-01-29T22:11:15.133Z,40.00
2023-01-29T22:13:43.867Z,39.47
2023-01-29T22:16:12.304Z,38.63
2023-01-29T22:18:40.794Z,47.60
2023-01-29T22:21:09.243Z,48.60
2023-01-29T22:23:38.013Z,49.30
2023-01-29T22:26:09.016Z,40.27
2023-01-29T22:28:38.957Z,44.03
2023-01-29T22:31:07.473Z,38.57
2023-01-29T22:33:36.020Z,38.03
2023-01-29T22:36:04.772Z,32.80
2023-01-29T22:38:33.301Z,36.13
2023-01-29T22:41:02.251Z,37.90
2023-01-29T22:43:30.876Z,36.97
2023-01-29T22:46:00.803Z,33.97
2023-01-29T22:48:30.523Z,37.37
2023-01-29T22:51:10.452Z,36.37
2023-01-29T22:53:40.025Z,37.10
2023-01-29T22:56:09.870Z,38.47
2023-01-29T22:58:38.603Z,35.40
2023-01-29T23:01:08.782Z,30.87
2023-01-29T23:03:37.569Z,35.60
2023-01-29T23:06:06.136Z,32.47
2023-01-29T23:08:35.019Z,35.97
2023-01-29T23:11:13.909Z,33.13
2023-01-29T23:13:44.155Z,35.83
2023-01-29T23:16:15.052Z,31.53
2023-01-29T23:18:43.847Z,34.37
2023-01-29T23:21:13.801Z,33.50
2023-01-29T23:23:44.890Z,34.17
2023-01-29T23:26:32.666Z,29.70
2023-01-29T23:29:01.492Z,31.50
2023-01-29T23:31:31.945Z,30.23
2023-01-29T23:34:00.488Z,32.43
2023-01-29T23:36:28.991Z,30.03
2023-01-29T23:38:57.522Z,29.80
2023-01-29T23:41:26.053Z,34.33
2023-01-29T23:43:54.525Z,32.80
2023-01-29T23:46:23.026Z,32.97
2023-01-29T23:48:52.878Z,22.67
2023-01-29T23:51:23.965Z,33.97
2023-01-29T23:53:52.523Z,35.37
2023-01-29T23:56:21.051Z,31.07
2023-01-29T23:58:53.308Z,31.90
